Time;durP1;ratioP1;P1;durP2;ratioP2;P2;SDS_P1;SDS_P2;PMS_P1;PMS_P2;Temp;Humidity;BMP_temperature;BMP_pressure;BME280_temperature;BME280_humidity;BME280_pressure;Samples;Min_cycle;Max_cycle;Signal;HPM_P1;HPM_P2
2021/06/20 00:00:10;;;;;;;15.07;12.45;;;;;;;;;;5017634;28;20555;-60
2021/06/20 00:02:38;;;;;;;16.38;12.05;;;;;;;;;;5014682;28;20053;-60
2021/06/20 00:05:09;;;;;;;19.35;12.65;;;;;;;;;;5017903;28;20401;-60
2021/06/20 00:07:38;;;;;;;17.92;13.30;;;;;;;;;;5019156;28;20140;-60
2021/06/20 00:10:08;;;;;;;18.27;13.70;;;;;;;;;;5016355;28;20470;-60
2021/06/20 00:12:36;;;;;;;17.58;14.10;;;;;;;;;;5011626;28;20052;-60
2021/06/20 00:15:07;;;;;;;16.77;14.00;;;;;;;;;;5013506;28;20045;-60
2021/06/20 00:17:35;;;;;;;16.15;13.40;;;;;;;;;;5019920;28;20128;-60
2021/06/20 00:20:05;;;;;;;16.83;13.65;;;;;;;;;;5015789;28;20705;-60
2021/06/20 00:22:35;;;;;;;15.98;13.57;;;;;;;;;;5016836;28;20042;-60
2021/06/20 00:25:04;;;;;;;16.92;14.27;;;;;;;;;;5019231;28;20050;-60
2021/06/20 00:27:32;;;;;;;18.23;13.30;;;;;;;;;;5015926;28;20045;-60
2021/06/20 00:30:01;;;;;;;15.77;13.90;;;;;;;;;;5015982;28;20050;-60
2021/06/20 00:32:29;;;;;;;16.45;13.65;;;;;;;;;;5015937;28;20048;-60
2021/06/20 00:34:58;;;;;;;16.08;14.25;;;;;;;;;;5015989;28;20475;-60
2021/06/20 00:37:26;;;;;;;15.00;13.18;;;;;;;;;;5019005;28;20142;-60
2021/06/20 00:39:56;;;;;;;17.33;13.98;;;;;;;;;;5020390;28;20133;-60
2021/06/20 00:42:24;;;;;;;18.55;13.70;;;;;;;;;;5019381;28;20038;-60
2021/06/20 00:44:52;;;;;;;17.80;13.18;;;;;;;;;;5018679;28;20053;-60
2021/06/20 00:47:21;;;;;;;17.95;13.68;;;;;;;;;;5020045;28;20046;-60
2021/06/20 00:49:49;;;;;;;17.80;13.98;;;;;;;;;;5018115;28;20073;-60
2021/06/20 00:52:19;;;;;;;18.33;13.90;;;;;;;;;;5016227;28;20033;-60
2021/06/20 00:54:48;;;;;;;16.63;12.98;;;;;;;;;;5019400;28;20057;-60
2021/06/20 00:57:18;;;;;;;18.05;13.10;;;;;;;;;;5020427;28;20052;-60
2021/06/20 00:59:46;;;;;;;15.07;13.25;;;;;;;;;;5021065;28;20056;-60
2021/06/20 01:02:16;;;;;;;17.08;13.05;;;;;;;;;;5019741;28;20235;-60
2021/06/20 01:04:45;;;;;;;20.52;13.50;;;;;;;;;;5021448;28;20752;-60
2021/06/20 01:07:15;;;;;;;15.23;13.25;;;;;;;;;;5015576;28;20300;-60
2021/06/20 01:09:44;;;;;;;18.75;13.27;;;;;;;;;;5018318;28;20425;-60
2021/06/20 01:12:13;;;;;;;16.13;13.23;;;;;;;;;;5017566;28;20055;-60
2021/06/20 01:14:43;;;;;;;15.13;13.52;;;;;;;;;;5018956;28;20484;-60
2021/06/20 01:17:11;;;;;;;14.55;13.02;;;;;;;;;;5018111;28;20068;-60
2021/06/20 01:19:40;;;;;;;15.45;13.20;;;;;;;;;;5016714;28;20061;-60
2021/06/20 01:22:21;;;;;;;14.00;12.52;;;;;;;;;;5016970;28;20053;-60
2021/06/20 01:24:53;;;;;;;15.23;12.95;;;;;;;;;;5016243;28;20091;-60
2021/06/20 01:27:22;;;;;;;15.07;13.48;;;;;;;;;;5014669;28;20058;-60
2021/06/20 01:29:51;;;;;;;19.73;13.52;;;;;;;;;;5016075;28;20056;-60
2021/06/20 01:32:19;;;;;;;14.73;13.05;;;;;;;;;;5016063;28;20425;-60
2021/06/20 01:34:48;;;;;;;14.57;12.95;;;;;;;;;;5022384;28;20049;-60
2021/06/20 01:37:17;;;;;;;14.73;13.13;;;;;;;;;;5022393;28;20041;-60
2021/06/20 01:39:47;;;;;;;14.60;13.02;;;;;;;;;;5017572;28;20132;-60
2021/06/20 01:42:16;;;;;;;16.77;13.55;;;;;;;;;;5014664;28;20056;-60
2021/06/20 01:44:46;;;;;;;19.55;13.57;;;;;;;;;;5016058;28;20049;-60
2021/06/20 01:47:14;;;;;;;16.65;13.48;;;;;;;;;;5016446;28;20594;-60
2021/06/20 01:49:43;;;;;;;17.02;13.55;;;;;;;;;;5017480;28;20045;-60
2021/06/20 01:52:11;;;;;;;15.93;13.02;;;;;;;;;;5016377;28;20060;-60
2021/06/20 01:54:50;;;;;;;17.10;13.50;;;;;;;;;;5019945;28;20043;-60
2021/06/20 01:57:21;;;;;;;23.20;13.48;;;;;;;;;;5015189;28;20054;-60
2021/06/20 01:59:49;;;;;;;16.02;13.18;;;;;;;;;;5018946;28;20144;-60
2021/06/20 02:02:18;;;;;;;17.02;13.40;;;;;;;;;;5018852;28;20050;-60
2021/06/20 02:04:46;;;;;;;15.32;13.55;;;;;;;;;;5019185;28;20081;-60
2021/06/20 02:07:15;;;;;;;15.73;13.90;;;;;;;;;;5017715;28;20049;-60
2021/06/20 02:09:43;;;;;;;16.58;13.65;;;;;;;;;;5018697;28;20128;-60
2021/06/20 02:12:12;;;;;;;16.55;14.05;;;;;;;;;;5015488;28;20156;-60
2021/06/20 02:14:43;;;;;;;16.10;13.40;;;;;;;;;;5014082;28;20076;-60
2021/06/20 02:17:17;;;;;;;16.45;13.93;;;;;;;;;;5013523;28;20106;-60
2021/06/20 02:19:45;;;;;;;16.08;14.00;;;;;;;;;;5016998;28;20157;-60
2021/06/20 02:22:14;;;;;;;15.90;13.32;;;;;;;;;;5015802;28;20053;-60
2021/06/20 02:24:42;;;;;;;17.77;14.10;;;;;;;;;;5016426;28;20058;-60
2021/06/20 02:27:12;;;;;;;18.08;14.18;;;;;;;;;;5015821;28;20056;-60
2021/06/20 02:29:42;;;;;;;16.30;14.45;;;;;;;;;;5015245;28;20139;-60
2021/06/20 02:32:12;;;;;;;18.33;14.63;;;;;;;;;;5015517;28;20424;-60
2021/06/20 02:34:41;;;;;;;16.42;13.73;;;;;;;;;;5016943;28;20538;-60
2021/06/20 02:37:10;;;;;;;18.67;13.68;;;;;;;;;;5020199;28;20053;-60
2021/06/20 02:39:39;;;;;;;15.50;13.77;;;;;;;;;;5020723;28;20148;-60
2021/06/20 02:42:08;;;;;;;15.82;14.13;;;;;;;;;;5018186;28;20124;-60
2021/06/20 02:44:36;;;;;;;15.77;14.00;;;;;;;;;;5020375;28;20083;-60
2021/06/20 02:47:06;;;;;;;16.02;14.32;;;;;;;;;;5018203;28;20140;-60
2021/06/20 02:49:36;;;;;;;19.23;14.40;;;;;;;;;;5018052;28;20041;-60
2021/06/20 02:52:04;;;;;;;15.93;14.15;;;;;;;;;;5019704;28;20509;-60
2021/06/20 02:54:33;;;;;;;16.55;14.73;;;;;;;;;;5016744;28;20143;-60
2021/06/20 02:57:01;;;;;;;17.33;14.20;;;;;;;;;;5023411;28;20124;-60
2021/06/20 02:59:30;;;;;;;16.20;14.50;;;;;;;;;;5016637;28;20501;-60
2021/06/20 03:01:58;;;;;;;18.30;14.18;;;;;;;;;;5016971;28;20148;-60
2021/06/20 03:04:28;;;;;;;16.58;14.77;;;;;;;;;;5018004;28;20053;-60
2021/06/20 03:06:56;;;;;;;16.52;14.23;;;;;;;;;;5029715;28;20077;-60
2021/06/20 03:09:24;;;;;;;18.25;14.52;;;;;;;;;;5030985;28;20055;-60
2021/06/20 03:11:52;;;;;;;16.10;14.23;;;;;;;;;;5029309;28;20200;-60
2021/06/20 03:14:20;;;;;;;20.77;15.77;;;;;;;;;;5029934;28;20041;-60
2021/06/20 03:16:49;;;;;;;20.70;15.90;;;;;;;;;;5020201;28;20073;-60
2021/06/20 03:19:18;;;;;;;18.83;15.25;;;;;;;;;;5029782;28;20045;-60
2021/06/20 03:21:47;;;;;;;16.52;13.95;;;;;;;;;;5030497;28;20140;-60
2021/06/20 03:24:16;;;;;;;15.88;14.23;;;;;;;;;;5028406;28;20073;-60
2021/06/20 03:26:44;;;;;;;20.63;14.60;;;;;;;;;;5030086;28;20091;-60
2021/06/20 03:29:12;;;;;;;16.40;14.55;;;;;;;;;;5028760;28;20049;-60
2021/06/20 03:31:40;;;;;;;17.70;15.65;;;;;;;;;;5025446;28;20119;-60
2021/06/20 03:34:09;;;;;;;18.80;15.68;;;;;;;;;;5028677;28;20587;-60
2021/06/20 03:36:37;;;;;;;17.13;15.05;;;;;;;;;;5029328;28;20079;-60
2021/06/20 03:39:07;;;;;;;18.77;14.93;;;;;;;;;;5029717;28;20516;-60
2021/06/20 03:41:38;;;;;;;18.92;14.73;;;;;;;;;;5030197;28;20045;-60
2021/06/20 03:44:07;;;;;;;17.50;15.00;;;;;;;;;;5027326;28;20516;-60
2021/06/20 03:46:35;;;;;;;18.05;14.88;;;;;;;;;;5028622;28;20132;-60
2021/06/20 03:49:04;;;;;;;21.67;14.68;;;;;;;;;;5030130;28;20133;-60
2021/06/20 03:51:32;;;;;;;20.35;15.27;;;;;;;;;;5029205;28;20394;-60
2021/06/20 03:54:01;;;;;;;16.63;14.75;;;;;;;;;;5030256;28;20404;-60
2021/06/20 03:56:30;;;;;;;16.45;13.75;;;;;;;;;;5029338;28;20069;-60
2021/06/20 03:59:00;;;;;;;17.02;14.32;;;;;;;;;;5029408;28;20422;-60
2021/06/20 04:01:29;;;;;;;16.42;14.57;;;;;;;;;;5027520;28;20505;-60
2021/06/20 04:03:57;;;;;;;17.77;15.13;;;;;;;;;;5020423;28;20156;-60
2021/06/20 04:06:26;;;;;;;19.80;15.13;;;;;;;;;;5028985;28;20057;-60
2021/06/20 04:08:54;;;;;;;17.40;14.55;;;;;;;;;;5030214;28;20148;-60
2021/06/20 04:11:22;;;;;;;16.67;14.10;;;;;;;;;;5029508;28;20048;-60
2021/06/20 04:13:53;;;;;;;16.58;14.38;;;;;;;;;;5030117;28;20051;-60
2021/06/20 04:16:22;;;;;;;17.05;14.63;;;;;;;;;;5033476;28;20135;-60
2021/06/20 04:18:50;;;;;;;18.80;14.15;;;;;;;;;;5032728;28;20155;-60
2021/06/20 04:21:19;;;;;;;16.85;13.90;;;;;;;;;;5027573;28;20041;-60
2021/06/20 04:23:48;;;;;;;19.17;14.48;;;;;;;;;;5034265;28;20141;-60
2021/06/20 04:26:16;;;;;;;18.48;13.75;;;;;;;;;;5033304;28;20045;-60
2021/06/20 04:28:45;;;;;;;16.20;13.43;;;;;;;;;;5033922;28;20055;-60
2021/06/20 04:31:14;;;;;;;18.88;14.65;;;;;;;;;;5033176;28;20485;-60
2021/06/20 04:33:43;;;;;;;17.27;13.73;;;;;;;;;;5033498;28;20054;-60
2021/06/20 04:36:11;;;;;;;21.75;16.15;;;;;;;;;;5032651;28;20050;-60
2021/06/20 04:38:39;;;;;;;15.20;13.55;;;;;;;;;;5033590;28;20425;-60
2021/06/20 04:41:12;;;;;;;19.58;14.05;;;;;;;;;;5031949;28;20088;-60
2021/06/20 04:43:55;;;;;;;17.55;14.52;;;;;;;;;;5032849;28;20049;-60
2021/06/20 04:46:26;;;;;;;17.23;15.10;;;;;;;;;;5023801;28;20400;-60
2021/06/20 04:48:56;;;;;;;15.55;13.32;;;;;;;;;;5033191;28;20077;-60
2021/06/20 04:51:24;;;;;;;21.63;15.30;;;;;;;;;;5033512;28;20593;-60
2021/06/20 04:53:52;;;;;;;16.77;14.00;;;;;;;;;;5033281;28;20156;-60
2021/06/20 04:56:20;;;;;;;20.25;14.55;;;;;;;;;;5031803;28;20099;-60
2021/06/20 04:58:49;;;;;;;17.90;14.05;;;;;;;;;;5032961;28;20042;-60
2021/06/20 05:01:17;;;;;;;16.67;14.20;;;;;;;;;;5032904;28;20172;-60
2021/06/20 05:03:48;;;;;;;18.88;13.85;;;;;;;;;;5032091;28;20076;-60
2021/06/20 05:06:17;;;;;;;22.83;15.50;;;;;;;;;;5032278;28;20037;-60
2021/06/20 05:08:45;;;;;;;20.17;14.40;;;;;;;;;;5032124;28;20144;-60
2021/06/20 05:11:13;;;;;;;20.88;13.15;;;;;;;;;;5031043;28;20507;-60
2021/06/20 05:13:41;;;;;;;16.02;13.38;;;;;;;;;;5034241;28;20052;-60
2021/06/20 05:16:11;;;;;;;16.35;13.10;;;;;;;;;;5031021;28;20077;-60
2021/06/20 05:18:39;;;;;;;17.13;12.98;;;;;;;;;;5026090;28;20075;-60
2021/06/20 05:21:09;;;;;;;16.17;13.02;;;;;;;;;;5029307;28;20404;-60
2021/06/20 05:23:38;;;;;;;19.02;12.93;;;;;;;;;;5031441;28;20128;-60
2021/06/20 05:26:06;;;;;;;22.13;13.05;;;;;;;;;;5029541;28;20049;-60
2021/06/20 05:28:34;;;;;;;18.10;13.05;;;;;;;;;;5031502;28;20056;-60
2021/06/20 05:31:03;;;;;;;17.83;12.85;;;;;;;;;;5032936;28;20133;-60
2021/06/20 05:33:31;;;;;;;16.88;12.80;;;;;;;;;;5031644;28;20041;-60
2021/06/20 05:36:00;;;;;;;17.70;12.18;;;;;;;;;;5030913;28;20152;-62
2021/06/20 05:38:30;;;;;;;18.35;12.70;;;;;;;;;;5030842;28;20144;-60
2021/06/20 05:41:00;;;;;;;18.10;12.18;;;;;;;;;;5032353;28;20162;-60
2021/06/20 05:43:28;;;;;;;19.30;12.25;;;;;;;;;;5030493;28;20405;-60
2021/06/20 05:45:56;;;;;;;17.95;12.32;;;;;;;;;;5031520;28;20124;-61
2021/06/20 05:48:25;;;;;;;19.05;12.60;;;;;;;;;;5031700;28;20115;-60
2021/06/20 05:50:53;;;;;;;19.13;12.82;;;;;;;;;;5032082;28;20132;-60
2021/06/20 05:53:21;;;;;;;17.52;12.70;;;;;;;;;;5031026;28;20144;-60
2021/06/20 05:55:51;;;;;;;19.27;12.60;;;;;;;;;;5031330;28;20132;-60
2021/06/20 05:58:19;;;;;;;18.83;13.32;;;;;;;;;;5030613;28;20136;-60
2021/06/20 06:00:48;;;;;;;21.10;12.55;;;;;;;;;;5030611;28;20128;-60
2021/06/20 06:03:16;;;;;;;17.80;12.25;;;;;;;;;;5031101;28;20155;-60
2021/06/20 06:05:45;;;;;;;15.65;11.65;;;;;;;;;;5031879;28;20084;-60
2021/06/20 06:08:13;;;;;;;15.77;11.48;;;;;;;;;;5030006;28;20054;-60
2021/06/20 06:10:41;;;;;;;18.17;12.10;;;;;;;;;;5031817;28;20480;-60
2021/06/20 06:13:11;;;;;;;20.27;11.80;;;;;;;;;;5031211;28;20430;-60
2021/06/20 06:15:39;;;;;;;17.65;11.07;;;;;;;;;;5031622;28;20059;-60
2021/06/20 06:18:08;;;;;;;15.45;11.65;;;;;;;;;;5030111;28;20038;-60
2021/06/20 06:20:36;;;;;;;20.88;12.07;;;;;;;;;;5030980;28;20493;-60
2021/06/20 06:23:04;;;;;;;18.45;11.82;;;;;;;;;;5030256;28;20404;-60
2021/06/20 06:25:32;;;;;;;16.27;11.27;;;;;;;;;;5030754;28;20148;-61
2021/06/20 06:28:01;;;;;;;21.70;11.27;;;;;;;;;;5030432;28;20053;-60
2021/06/20 06:30:31;;;;;;;18.33;10.63;;;;;;;;;;5031106;28;20125;-60
2021/06/20 06:32:59;;;;;;;19.20;11.23;;;;;;;;;;5031427;28;20046;-61
2021/06/20 06:35:27;;;;;;;17.65;10.45;;;;;;;;;;5029943;28;20128;-61
2021/06/20 06:37:55;;;;;;;20.98;9.88;;;;;;;;;;5028588;28;20139;-61
2021/06/20 06:40:24;;;;;;;25.08;9.95;;;;;;;;;;5020471;28;20068;-61
2021/06/20 06:42:52;;;;;;;28.25;9.68;;;;;;;;;;5031639;28;20076;-61
2021/06/20 06:45:21;;;;;;;19.10;9.07;;;;;;;;;;5030850;28;20127;-60
2021/06/20 06:47:52;;;;;;;24.05;9.80;;;;;;;;;;5025495;28;20053;-60
2021/06/20 06:50:20;;;;;;;24.75;9.35;;;;;;;;;;5031253;28;20049;-61
2021/06/20 06:52:49;;;;;;;22.45;9.82;;;;;;;;;;5029930;28;20045;-61
2021/06/20 06:55:17;;;;;;;20.92;9.32;;;;;;;;;;5030293;28;20120;-61
2021/06/20 06:57:47;;;;;;;22.88;9.60;;;;;;;;;;5028689;28;20399;-61
2021/06/20 07:00:16;;;;;;;33.08;9.57;;;;;;;;;;5028204;28;20540;-61
2021/06/20 07:02:44;;;;;;;25.17;8.98;;;;;;;;;;5014915;28;20473;-61
2021/06/20 07:05:14;;;;;;;29.58;9.13;;;;;;;;;;5029566;28;20045;-61
2021/06/20 07:07:43;;;;;;;26.77;9.85;;;;;;;;;;5029469;28;20509;-61
2021/06/20 07:10:11;;;;;;;31.13;9.63;;;;;;;;;;5030074;28;20064;-60
2021/06/20 07:12:40;;;;;;;25.42;11.02;;;;;;;;;;5030954;28;20111;-61
2021/06/20 07:15:09;;;;;;;21.15;8.75;;;;;;;;;;5030831;28;20049;-61
2021/06/20 07:17:37;;;;;;;29.23;10.35;;;;;;;;;;5024554;28;20160;-61
2021/06/20 07:20:07;;;;;;;15.98;9.00;;;;;;;;;;5029747;28;20060;-61
2021/06/20 07:22:37;;;;;;;20.60;9.38;;;;;;;;;;5029978;28;20136;-61
2021/06/20 07:25:06;;;;;;;22.20;9.57;;;;;;;;;;5029607;28;20128;-61
2021/06/20 07:27:36;;;;;;;25.83;10.30;;;;;;;;;;5028537;28;20573;-61
2021/06/20 07:30:06;;;;;;;24.10;9.95;;;;;;;;;;5028884;28;20081;-61
2021/06/20 07:32:35;;;;;;;25.38;9.77;;;;;;;;;;5030364;28;20481;-61
2021/06/20 07:35:04;;;;;;;19.10;9.27;;;;;;;;;;5030025;28;20042;-61
2021/06/20 07:37:33;;;;;;;28.05;9.80;;;;;;;;;;5028792;28;20052;-61
2021/06/20 07:40:07;;;;;;;27.40;9.20;;;;;;;;;;5029756;28;20084;-61
2021/06/20 07:42:35;;;;;;;26.27;10.02;;;;;;;;;;5010787;28;20496;-61
2021/06/20 07:45:04;;;;;;;24.70;8.80;;;;;;;;;;5026105;28;20144;-61
2021/06/20 07:47:32;;;;;;;24.73;10.05;;;;;;;;;;5027424;28;20053;-61
2021/06/20 07:50:02;;;;;;;21.20;8.45;;;;;;;;;;5028951;28;20056;-60
2021/06/20 07:52:30;;;;;;;19.70;8.90;;;;;;;;;;5029336;28;20112;-61
2021/06/20 07:54:58;;;;;;;25.63;8.57;;;;;;;;;;5029092;28;20505;-61
2021/06/20 07:57:28;;;;;;;23.52;8.90;;;;;;;;;;5028277;28;20264;-61
2021/06/20 07:59:57;;;;;;;24.33;8.18;;;;;;;;;;5028784;28;20482;-61
2021/06/20 08:02:26;;;;;;;27.13;8.75;;;;;;;;;;5028415;28;20731;-61
2021/06/20 08:04:54;;;;;;;24.35;7.53;;;;;;;;;;5027640;28;20476;-61
2021/06/20 08:07:22;;;;;;;25.10;8.25;;;;;;;;;;5028381;28;20049;-61
2021/06/20 08:09:50;;;;;;;22.35;7.75;;;;;;;;;;5029461;28;20068;-60
2021/06/20 08:12:19;;;;;;;27.02;8.07;;;;;;;;;;5030598;28;20120;-60
2021/06/20 08:14:49;;;;;;;25.55;7.70;;;;;;;;;;5023803;28;20046;-60
2021/06/20 08:17:17;;;;;;;29.10;7.32;;;;;;;;;;5028807;28;20071;-60
2021/06/20 08:19:46;;;;;;;25.23;7.68;;;;;;;;;;5029144;28;20053;-60
2021/06/20 08:22:16;;;;;;;20.83;7.80;;;;;;;;;;5024449;28;20070;-60
2021/06/20 08:24:45;;;;;;;28.55;8.45;;;;;;;;;;5020446;28;20046;-60
2021/06/20 08:27:13;;;;;;;21.75;8.10;;;;;;;;;;5028272;28;20584;-60
2021/06/20 08:29:45;;;;;;;23.83;7.97;;;;;;;;;;5029792;28;20053;-60
2021/06/20 08:32:16;;;;;;;26.02;8.25;;;;;;;;;;5029411;28;20061;-60
2021/06/20 08:34:45;;;;;;;24.13;7.68;;;;;;;;;;5030124;28;20053;-60
2021/06/20 08:37:14;;;;;;;25.20;7.50;;;;;;;;;;5022491;28;20118;-60
2021/06/20 08:39:43;;;;;;;22.33;7.43;;;;;;;;;;5028394;28;20487;-60
2021/06/20 08:42:11;;;;;;;32.72;8.52;;;;;;;;;;5026769;28;20580;-60
2021/06/20 08:44:39;;;;;;;31.48;7.70;;;;;;;;;;5029353;28;20128;-60
2021/06/20 08:47:08;;;;;;;29.20;7.50;;;;;;;;;;5027896;28;20103;-60
2021/06/20 08:49:38;;;;;;;19.02;6.55;;;;;;;;;;5029479;28;20410;-60
2021/06/20 08:52:07;;;;;;;26.33;6.60;;;;;;;;;;5029620;28;20085;-60
2021/06/20 08:54:37;;;;;;;21.38;6.53;;;;;;;;;;5030163;28;20053;-60
2021/06/20 08:57:07;;;;;;;19.45;5.80;;;;;;;;;;5029077;28;20052;-60
2021/06/20 08:59:35;;;;;;;21.75;6.57;;;;;;;;;;5028572;28;20132;-61
2021/06/20 09:02:04;;;;;;;27.15;6.50;;;;;;;;;;5030615;28;20120;-61
2021/06/20 09:04:34;;;;;;;25.08;7.07;;;;;;;;;;5033708;28;20049;-61
2021/06/20 09:07:06;;;;;;;27.80;6.65;;;;;;;;;;5032060;28;20045;-61
2021/06/20 09:09:35;;;;;;;22.58;6.85;;;;;;;;;;5031791;28;20357;-61
2021/06/20 09:12:08;;;;;;;30.40;7.35;;;;;;;;;;5033233;28;20049;-61
2021/06/20 09:14:44;;;;;;;28.38;7.10;;;;;;;;;;5030933;28;20049;-62
2021/06/20 09:17:13;;;;;;;26.02;6.03;;;;;;;;;;5029489;28;20472;-63
2021/06/20 09:19:41;;;;;;;21.95;6.75;;;;;;;;;;5029817;28;20071;-63
2021/06/20 09:22:12;;;;;;;20.10;5.03;;;;;;;;;;5031101;28;20087;-63
2021/06/20 09:24:40;;;;;;;23.38;5.13;;;;;;;;;;5033295;28;20129;-63
2021/06/20 09:27:09;;;;;;;24.25;5.95;;;;;;;;;;5031285;28;20049;-62
2021/06/20 09:29:38;;;;;;;22.13;5.78;;;;;;;;;;5032971;28;20073;-63
2021/06/20 09:32:07;;;;;;;21.25;5.63;;;;;;;;;;5031573;28;20054;-62
2021/06/20 09:34:42;;;;;;;23.25;5.70;;;;;;;;;;5030916;28;20059;-60
2021/06/20 09:37:12;;;;;;;35.00;8.07;;;;;;;;;;5031077;28;20053;-60
2021/06/20 09:39:41;;;;;;;19.40;5.70;;;;;;;;;;5033754;28;20136;-60
2021/06/20 09:42:10;;;;;;;27.17;6.03;;;;;;;;;;5016791;28;20049;-60
2021/06/20 09:44:41;;;;;;;17.00;6.20;;;;;;;;;;5031471;28;20132;-60
2021/06/20 09:47:11;;;;;;;22.67;6.60;;;;;;;;;;5031150;28;20128;-61
2021/06/20 09:49:44;;;;;;;20.42;5.47;;;;;;;;;;5033358;28;20049;-60
2021/06/20 09:52:15;;;;;;;21.23;6.13;;;;;;;;;;5029252;28;20099;-60
2021/06/20 09:54:48;;;;;;;21.45;5.60;;;;;;;;;;5032519;28;20051;-60
2021/06/20 09:57:17;;;;;;;28.30;6.18;;;;;;;;;;5025504;28;20152;-60
2021/06/20 09:59:55;;;;;;;25.58;6.40;;;;;;;;;;5033031;28;20073;-60
2021/06/20 10:02:28;;;;;;;21.98;6.32;;;;;;;;;;5031503;28;20050;-60
2021/06/20 10:04:57;;;;;;;26.50;6.28;;;;;;;;;;5032027;28;20060;-60
2021/06/20 10:07:28;;;;;;;19.67;5.50;;;;;;;;;;5031806;28;20049;-60
2021/06/20 10:09:57;;;;;;;21.70;5.43;;;;;;;;;;5033193;28;20119;-60
2021/06/20 10:12:26;;;;;;;27.20;7.18;;;;;;;;;;5031997;28;20132;-60
2021/06/20 10:14:55;;;;;;;20.42;5.60;;;;;;;;;;5032419;28;20103;-60
2021/06/20 10:17:28;;;;;;;19.92;6.72;;;;;;;;;;5024847;28;20503;-60
2021/06/20 10:19:57;;;;;;;20.67;5.70;;;;;;;;;;5030652;28;20222;-60
2021/06/20 10:22:34;;;;;;;23.25;5.97;;;;;;;;;;5029615;28;20075;-60
2021/06/20 10:25:04;;;;;;;28.23;6.03;;;;;;;;;;5028790;28;20060;-60
2021/06/20 10:27:33;;;;;;;20.95;6.30;;;;;;;;;;5016261;28;20046;-60
2021/06/20 10:30:04;;;;;;;26.92;6.20;;;;;;;;;;5029628;28;20067;-60
2021/06/20 10:32:37;;;;;;;23.55;6.18;;;;;;;;;;5031807;28;20107;-60
2021/06/20 10:35:09;;;;;;;23.42;5.57;;;;;;;;;;5029067;28;20158;-60
2021/06/20 10:37:41;;;;;;;22.52;6.03;;;;;;;;;;5029386;28;20482;-60
2021/06/20 10:40:20;;;;;;;23.58;6.20;;;;;;;;;;5026108;28;20053;-60
2021/06/20 10:42:49;;;;;;;23.20;6.03;;;;;;;;;;5027846;28;20069;-60
2021/06/20 10:45:28;;;;;;;33.05;6.85;;;;;;;;;;5029454;28;20092;-60
2021/06/20 10:47:58;;;;;;;25.80;7.20;;;;;;;;;;5026107;28;20049;-60
2021/06/20 10:50:36;;;;;;;22.95;6.32;;;;;;;;;;5023416;28;20078;-60
2021/06/20 10:53:06;;;;;;;24.13;6.00;;;;;;;;;;5026513;28;20045;-60
2021/06/20 10:55:41;;;;;;;17.42;6.18;;;;;;;;;;5029418;28;20109;-60
2021/06/20 10:58:17;;;;;;;29.27;6.60;;;;;;;;;;5027297;28;20128;-60
2021/06/20 11:00:45;;;;;;;22.25;6.40;;;;;;;;;;5029435;28;20373;-60
2021/06/20 11:03:14;;;;;;;22.88;6.25;;;;;;;;;;5029470;28;20577;-61
2021/06/20 11:05:49;;;;;;;19.60;5.85;;;;;;;;;;5029520;28;20481;-61
2021/06/20 11:08:41;;;;;;;17.35;5.97;;;;;;;;;;5028628;28;20072;-61
2021/06/20 11:11:14;;;;;;;20.45;5.82;;;;;;;;;;5020957;28;20060;-60
2021/06/20 11:13:43;;;;;;;29.73;7.13;;;;;;;;;;5028294;28;20084;-60
2021/06/20 11:16:14;;;;;;;25.70;6.45;;;;;;;;;;5026186;28;20060;-60
2021/06/20 11:18:43;;;;;;;23.92;6.53;;;;;;;;;;5029335;28;20042;-60
2021/06/20 11:21:11;;;;;;;26.92;7.68;;;;;;;;;;5029498;28;20572;-61
2021/06/20 11:23:42;;;;;;;22.27;6.80;;;;;;;;;;5028368;28;20136;-60
2021/06/20 11:26:10;;;;;;;23.92;6.10;;;;;;;;;;5026979;28;20424;-60
2021/06/20 11:28:40;;;;;;;21.10;6.65;;;;;;;;;;5028718;28;20124;-60
2021/06/20 11:31:09;;;;;;;32.17;6.85;;;;;;;;;;5028717;28;20133;-63
2021/06/20 11:33:38;;;;;;;35.92;7.00;;;;;;;;;;5024245;28;20088;-62
2021/06/20 11:36:07;;;;;;;26.45;6.75;;;;;;;;;;5028343;28;20081;-62
2021/06/20 11:38:37;;;;;;;22.70;5.88;;;;;;;;;;5027555;28;20144;-62
2021/06/20 11:41:12;;;;;;;21.27;6.25;;;;;;;;;;5030061;28;20081;-62
2021/06/20 11:43:52;;;;;;;31.15;7.70;;;;;;;;;;5030222;28;20085;-63
2021/06/20 11:46:21;;;;;;;22.38;6.07;;;;;;;;;;5029607;28;20128;-63
2021/06/20 11:48:57;;;;;;;24.13;6.53;;;;;;;;;;5027632;28;20057;-62
2021/06/20 11:51:44;;;;;;;30.70;7.07;;;;;;;;;;5033509;28;20076;-62
2021/06/20 11:54:17;;;;;;;32.78;7.22;;;;;;;;;;5032648;28;20096;-63
2021/06/20 11:56:46;;;;;;;25.30;6.55;;;;;;;;;;5030955;28;20133;-63
2021/06/20 11:59:16;;;;;;;23.65;6.53;;;;;;;;;;5031370;28;20069;-62
2021/06/20 12:01:49;;;;;;;26.40;7.22;;;;;;;;;;5031710;28;20084;-62
2021/06/20 12:04:21;;;;;;;26.85;7.25;;;;;;;;;;5031175;28;20395;-62
2021/06/20 12:06:49;;;;;;;30.48;7.00;;;;;;;;;;5030537;28;20454;-62
2021/06/20 12:09:18;;;;;;;22.23;6.70;;;;;;;;;;5030525;28;20560;-62
2021/06/20 12:11:46;;;;;;;28.98;7.45;;;;;;;;;;5030723;28;20257;-62
2021/06/20 12:14:24;;;;;;;26.20;7.07;;;;;;;;;;5030460;28;20050;-62
2021/06/20 12:16:53;;;;;;;24.60;7.05;;;;;;;;;;5030475;28;20136;-62
2021/06/20 12:19:23;;;;;;;25.30;7.03;;;;;;;;;;5030481;28;20077;-62
2021/06/20 12:22:06;;;;;;;26.88;6.75;;;;;;;;;;5030884;28;20056;-62
2021/06/20 12:24:39;;;;;;;25.52;6.82;;;;;;;;;;5030665;28;20053;-62
2021/06/20 12:27:09;;;;;;;29.55;8.85;;;;;;;;;;5029289;28;20060;-62
2021/06/20 12:29:38;;;;;;;21.83;6.78;;;;;;;;;;5031387;28;20084;-62
2021/06/20 12:32:08;;;;;;;22.85;5.80;;;;;;;;;;5031329;28;20381;-63
2021/06/20 12:34:44;;;;;;;28.33;6.13;;;;;;;;;;5030686;28;20472;-63
2021/06/20 12:37:12;;;;;;;20.67;5.78;;;;;;;;;;5014417;28;20084;-63
2021/06/20 12:39:55;;;;;;;21.95;5.70;;;;;;;;;;2453037;28;10023673;-63
2021/06/20 12:42:24;;;;;;;32.72;7.03;;;;;;;;;;3630370;28;10001385;-62
2021/06/20 12:44:55;;;;;;;21.98;6.13;;;;;;;;;;5016479;28;20100;-62
2021/06/20 12:47:31;;;;;;;24.65;5.80;;;;;;;;;;5033993;28;20051;-62
2021/06/20 12:49:59;;;;;;;23.95;5.25;;;;;;;;;;5033646;28;20088;-62
2021/06/20 12:52:29;;;;;;;21.55;5.32;;;;;;;;;;5034243;28;20106;-62
2021/06/20 12:54:57;;;;;;;23.83;5.78;;;;;;;;;;5035135;28;20052;-62
2021/06/20 12:57:27;;;;;;;27.13;6.13;;;;;;;;;;5032983;28;20057;-61
2021/06/20 13:00:07;;;;;;;26.48;6.30;;;;;;;;;;5033451;28;20049;-61
2021/06/20 13:02:35;;;;;;;28.77;7.05;;;;;;;;;;5013863;28;20141;-62
2021/06/20 13:05:04;;;;;;;31.02;6.20;;;;;;;;;;5032754;28;20052;-62
2021/06/20 13:07:34;;;;;;;25.05;6.18;;;;;;;;;;5033373;28;20137;-62
2021/06/20 13:10:02;;;;;;;25.17;6.07;;;;;;;;;;5034086;28;20053;-63
2021/06/20 13:12:32;;;;;;;28.33;6.75;;;;;;;;;;5033891;28;20050;-63
2021/06/20 13:15:02;;;;;;;31.05;6.30;;;;;;;;;;5030771;28;20057;-63
2021/06/20 13:17:31;;;;;;;35.05;8.30;;;;;;;;;;5029960;28;20045;-63
2021/06/20 13:19:59;;;;;;;31.00;6.03;;;;;;;;;;5028417;28;20099;-63
2021/06/20 13:22:27;;;;;;;28.45;6.65;;;;;;;;;;5029928;28;20593;-63
2021/06/20 13:24:56;;;;;;;30.08;6.93;;;;;;;;;;5030534;28;20136;-63
2021/06/20 13:27:25;;;;;;;32.30;7.65;;;;;;;;;;5022666;28;20057;-63
2021/06/20 13:29:54;;;;;;;32.85;8.88;;;;;;;;;;5027262;28;20475;-63
2021/06/20 13:32:24;;;;;;;31.52;8.18;;;;;;;;;;5023222;28;20089;-63
2021/06/20 13:34:53;;;;;;;33.95;8.65;;;;;;;;;;5023199;28;20481;-63
2021/06/20 13:37:22;;;;;;;28.08;5.78;;;;;;;;;;5030290;28;20054;-63
2021/06/20 13:39:50;;;;;;;29.95;6.63;;;;;;;;;;5029297;28;20069;-63
2021/06/20 13:42:19;;;;;;;27.50;6.05;;;;;;;;;;5030565;28;20080;-63
2021/06/20 13:44:47;;;;;;;25.17;6.47;;;;;;;;;;5028460;28;20045;-63
2021/06/20 13:47:16;;;;;;;22.55;6.38;;;;;;;;;;5028881;28;20057;-63
2021/06/20 13:49:46;;;;;;;25.08;5.57;;;;;;;;;;5029671;28;20049;-63
2021/06/20 13:52:17;;;;;;;23.10;5.32;;;;;;;;;;5030875;28;20084;-63
2021/06/20 13:54:51;;;;;;;27.08;5.45;;;;;;;;;;5030373;28;20152;-63
2021/06/20 13:57:20;;;;;;;27.60;5.70;;;;;;;;;;5029201;28;20445;-63
2021/06/20 13:59:48;;;;;;;29.45;6.68;;;;;;;;;;5029497;28;20064;-63
2021/06/20 14:02:17;;;;;;;28.23;6.63;;;;;;;;;;5013618;28;20152;-63
2021/06/20 14:04:47;;;;;;;23.50;6.10;;;;;;;;;;5030423;28;20051;-63
2021/06/20 14:07:16;;;;;;;22.40;5.78;;;;;;;;;;5028357;28;20139;-62
2021/06/20 14:09:53;;;;;;;23.52;5.90;;;;;;;;;;5029773;28;20123;-63
2021/06/20 14:12:22;;;;;;;21.20;5.82;;;;;;;;;;5028479;28;20103;-62
2021/06/20 14:14:51;;;;;;;24.48;5.72;;;;;;;;;;5018303;28;20054;-62
2021/06/20 14:17:20;;;;;;;26.55;6.72;;;;;;;;;;5029642;28;20057;-62
2021/06/20 14:19:49;;;;;;;22.27;5.43;;;;;;;;;;5031589;28;20124;-62
2021/06/20 14:22:18;;;;;;;21.50;5.78;;;;;;;;;;5031678;28;20033;-62
2021/06/20 14:24:46;;;;;;;28.85;5.55;;;;;;;;;;5016833;28;20111;-62
2021/06/20 14:27:14;;;;;;;24.95;6.97;;;;;;;;;;5031255;28;20128;-62
2021/06/20 14:29:43;;;;;;;27.70;6.65;;;;;;;;;;5030605;28;20483;-62
2021/06/20 14:32:11;;;;;;;26.38;6.68;;;;;;;;;;5031784;28;20232;-62
2021/06/20 14:34:51;;;;;;;32.33;6.80;;;;;;;;;;5032680;28;20057;-62
2021/06/20 14:37:20;;;;;;;20.05;5.97;;;;;;;;;;5031281;28;20057;-62